New Harbor, ME

43° 52' 34"N, 69° 29' 40"W, Elevation 65 ft.
Eastern Time

Hourly observations for the last 72 hours

Date Time Temperature (°F) Humi-
dity

(%)
Wind
(mph)
Pressure Rain (in) Sun
(W/m2)
ET
(in)
Air Dew 6 Hour 1 Hr 3 Hr 6 Hr Day
Alt
(in)
Sea
Level

(mb)
Max Min
22 13:00 21.8 18.5 30.5 21.8 87 NE 6 G 12 30.36 1028.2 0.00 49 0.012
22 12:00 22.8 19.2 86 NE 5 G 14 30.36 1028.3 0.00 42 0.011
22 11:00 24.4 19.7 82 ENE 11 G 17 30.38 1028.9 0.00 35 0.010
22 10:00 26.0 19.8 77 NE 9 G 18 30.37 1028.6 0.00 33 0.009
22 09:00 28.2 21.3 75 ENE 9 G 15 30.35 1027.8 0.00 25 0.008
22 08:00 29.9 22.3 73 E 6 G 16 30.32 1026.9 0.00 11 0.007
22 07:00 30.5 21.9 35.6 30.4 70 ENE 10 G 18 30.29 1025.8 0.00 0 0.006
22 06:00 31.4 23.8 73 ENE 7 G 17 30.27 1025.0 0.00 0 0.005
22 05:00 31.7 23.7 72 ENE 9 G 17 30.25 1024.3 0.00 0 0.004
22 04:00 32.3 24.0 71 E 9 G 16 30.23 1023.7 0.00 0 0.003
22 03:00 33.0 24.6 71 ENE 6 G 13 30.22 1023.5 0.00 0 0.002
22 02:00 34.1 26.7 74 E 6 G 11 30.21 1023.1 0.00 0 0.001
22 01:00 35.6 28.5 35.6 32.8 75 ENE 5 G 8 30.19 1022.4 0.00 0 0.000
22 00:00 34.7 28.2 77 ENE 2 G 8 30.18 1022.2 0.03 0 0.022
21 23:00 32.9 28.3 83 NNE 2 G 3 30.18 1021.9 0.03 0 0.022
21 22:00 33.1 28.2 82 N 1 G 2 30.17 1021.7 0.03 0 0.022
21 21:00 33.5 28.3 81 W 1 G 2 30.17 1021.5 0.03 0 0.022
21 20:00 33.6 28.7 82 W 0 G 1 30.16 1021.5 0.03 0 0.022
21 19:00 33.9 28.7 42.3 33.9 81 W 0 G 1 30.16 1021.4 0.01 0.03 0 0.022
21 18:00 34.9 28.4 77 W 0 G 1 30.15 1020.9 0.03 0 0.021
21 17:00 37.2 29.7 74 W 0 G 3 30.12 1019.9 0.03 0 0.021
21 16:00 40.3 28.3 62 W 1 G 5 30.09 1019.1 0.01 0.03 16 0.020
21 15:00 41.5 28.7 60 W 1 G 8 30.07 1018.3 0.03 39 0.018
21 14:00 42.0 29.1 60 WNW 1 G 8 30.06 1017.9 0.01 0.03 86 0.016
21 13:00 41.5 29.8 42.4 35.4 63 W 3 G 7 30.05 1017.6 0.01 0.02 0.02 90 0.014
21 12:00 41.3 30.4 65 WNW 2 G 7 30.05 1017.6 0.02 95 0.011
21 11:00 42.3 30.2 62 WSW 3 G 11 30.07 1018.2 0.01 0.02 230 0.008
21 10:00 39.9 30.9 70 NNW 1 G 3 30.07 1018.3 0.01 0.01 0.01 141 0.006
21 09:00 35.4 28.9 77 N 0 G 1 30.05 1017.6 0.00 105 0.005
21 08:00 35.7 28.9 76 W 2 G 5 30.02 1016.5 0.00 18 0.005
21 07:00 38.3 30.7 38.6 32.9 74 NW 1 G 9 29.99 1015.7 0.00 0 0.005
21 06:00 38.0 31.1 76 SW 2 G 7 29.97 1014.9 0.00 0 0.004
21 05:00 36.8 30.0 76 NNW 2 G 7 29.94 1014.0 0.00 0 0.003
21 04:00 36.2 30.0 78 NW 2 G 9 29.91 1012.9 0.00 0 0.002
21 03:00 34.8 29.3 80 W 2 G 8 29.88 1011.9 0.00 0 0.001
21 02:00 33.5 28.6 82 W 3 G 9 29.88 1011.8 0.00 0 0.001
21 01:00 36.1 29.3 41.1 35.4 76 W 2 G 7 29.86 1011.1 0.01 0.01 0.00 0 0.000
21 00:00 38.0 30.1 73 WSW 3 G 8 29.85 1011.0 0.14 0 0.031
20 23:00 37.0 29.2 73 WSW 4 G 8 29.82 1009.7 0.01 0.14 0 0.030
20 22:00 40.9 30.0 65 WSW 9 G 14 29.81 1009.5 0.13 0 0.029
20 21:00 39.3 29.6 68 WSW 4 G 9 29.79 1009.0 0.13 0 0.028
20 20:00 36.6 29.4 75 WSW 3 G 8 29.79 1008.8 0.13 0 0.027
20 19:00 35.4 29.8 41.1 30.9 80 WSW 4 G 10 29.76 1007.8 0.07 0.13 0 0.027
20 18:00 31.6 28.5 88 NW 2 G 6 29.72 1006.5 0.13 0 0.027
20 17:00 34.0 30.0 85 W 1 G 4 29.67 1004.9 0.13 0 0.027
20 16:00 39.4 32.5 76 W 1 G 3 29.63 1003.5 0.01 0.07 0.13 26 0.026
20 15:00 40.6 33.3 75 SW 3 G 7 29.60 1002.4 0.03 0.12 91 0.024
20 14:00 40.0 32.4 74 SW 5 G 10 29.56 1000.9 0.03 0.09 146 0.020
20 13:00 40.4 30.3 40.4 34.9 67 WSW 5 G 13 29.54 1000.4 0.03 0.05 0.06 0.06 274 0.015
20 12:00 36.9 28.7 72 WSW 4 G 11 29.55 1000.5 0.01 0.03 283 0.012
20 11:00 37.4 28.9 71 WSW 5 G 15 29.55 1000.8 0.01 0.02 130 0.009
20 10:00 37.0 30.1 76 WSW 6 G 15 29.54 1000.3 0.01 0.01 0.01 95 0.007
20 09:00 36.5 30.6 79 WSW 9 G 18 29.53 1000.2 0.00 28 0.006
20 08:00 36.3 30.7 80 SW 6 G 17 29.54 1000.3 0.00 9 0.005
20 07:00 34.9 29.7 34.9 29.9 81 SSW 5 G 15 29.57 1001.4 0.00 0 0.004
20 06:00 34.3 29.4 82 SSW 4 G 16 29.60 1002.3 0.00 0 0.003
20 05:00 33.9 28.7 81 SW 3 G 14 29.62 1003.1 0.00 0 0.002
20 04:00 34.8 29.6 81 SW 5 G 11 29.68 1005.2 0.00 0 0.001
20 03:00 32.9 28.3 83 SW 5 G 11 29.72 1006.5 0.00 0 0.000
20 02:00 31.6 27.0 83 SW 6 G 12 29.75 1007.5 0.00 0 0.000
20 01:00 30.0 25.2 30.7 28.9 82 SW 3 G 7 29.77 1008.2 0.00 0 0.000
20 00:00 29.9 25.1 82 SSW 1 G 7 29.79 1009.0 0.09 0 0.015
19 23:00 29.9 25.4 83 WSW 4 G 7 29.83 1010.3 0.09 0 0.015
19 22:00 29.8 25.6 84 W 1 G 3 29.84 1010.5 0.09 0 0.015
19 21:00 30.6 26.6 85 W 2 G 7 29.86 1011.4 0.09 0 0.015
19 20:00 29.6 27.0 90 WSW 2 G 4 29.87 1011.5 0.09 0 0.015
19 19:00 29.0 25.9 35.0 29.0 88 W 2 G 3 29.86 1011.3 0.05 0.09 0 0.015
19 18:00 29.5 25.8 86 WSW 1 G 3 29.88 1011.8 0.09 0 0.015
19 17:00 29.8 25.8 85 WSW 1 G 3 29.89 1012.3 0.09 0 0.015
19 16:00 31.0 26.2 82 SSW 0 G 1 29.88 1012.0 0.05 0.09 18 0.014
19 15:00 31.8 25.4 77 W 2 G 5 29.89 1012.1 0.02 0.09 54 0.013
19 14:00 33.0 25.9 75 SW 4 G 7 29.88 1011.8 0.03 0.07 239 0.010

Data generated by WxSolution Version 1.9.0.6, Build 2017.01.14.